Time;durP1;ratioP1;P1;durP2;ratioP2;P2;SDS_P1;SDS_P2;PMS_P1;PMS_P2;Temp;Humidity;BMP_temperature;BMP_pressure;BME280_temperature;BME280_humidity;BME280_pressure;Samples;Min_cycle;Max_cycle;Signal;HPM_P1;HPM_P2
2021/03/04 00:00:36;;;;;;;11.67;9.07;;;9.40;95.40;;;;;;5113733;27;20453;-53
2021/03/04 00:03:04;;;;;;;13.85;9.70;;;9.30;95.40;;;;;;5113477;27;20231;-52
2021/03/04 00:05:30;;;;;;;14.25;8.98;;;9.40;95.20;;;;;;5124324;27;20189;-53
2021/03/04 00:07:56;;;;;;;9.80;8.30;;;9.50;95.30;;;;;;5113177;27;20215;-53
2021/03/04 00:10:22;;;;;;;15.40;10.27;;;9.40;95.70;;;;;;5113100;27;20193;-53
2021/03/04 00:12:49;;;;;;;12.25;9.93;;;9.40;96.10;;;;;;5113625;27;20425;-53
2021/03/04 00:15:17;;;;;;;14.32;8.65;;;9.20;95.80;;;;;;5113090;27;20297;-53
2021/03/04 00:17:45;;;;;;;12.52;8.90;;;9.20;95.50;;;;;;5112922;27;20203;-52
2021/03/04 00:20:17;;;;;;;14.10;8.98;;;9.10;95.30;;;;;;5131308;27;20179;-52
2021/03/04 00:22:42;;;;;;;10.43;8.30;;;9.30;95.50;;;;;;5117027;27;20548;-52
2021/03/04 00:25:09;;;;;;;11.20;8.20;;;9.30;95.30;;;;;;5113369;27;20270;-53
2021/03/04 00:27:35;;;;;;;10.50;8.95;;;9.50;95.00;;;;;;5109108;27;20204;-53
2021/03/04 00:30:01;;;;;;;10.60;8.55;;;9.40;94.70;;;;;;5112450;27;20194;-53
2021/03/04 00:32:26;;;;;;;11.40;8.80;;;9.40;94.60;;;;;;5113322;27;20194;-52
2021/03/04 00:34:52;;;;;;;14.70;9.90;;;9.50;94.60;;;;;;5113215;27;20651;-52
2021/03/04 00:37:18;;;;;;;10.67;8.33;;;9.60;94.60;;;;;;5112686;27;20662;-53
2021/03/04 00:39:44;;;;;;;12.70;8.30;;;9.50;94.70;;;;;;5120123;27;20183;-53
2021/03/04 00:42:10;;;;;;;13.30;8.10;;;9.40;94.80;;;;;;5113565;27;20433;-53
2021/03/04 00:44:37;;;;;;;11.80;8.80;;;9.60;94.80;;;;;;5113201;27;20713;-53
2021/03/04 00:47:04;;;;;;;9.80;8.32;;;9.50;94.70;;;;;;5131769;27;20252;-53
2021/03/04 00:49:30;;;;;;;10.32;7.72;;;9.50;94.70;;;;;;5113304;27;20274;-52
2021/03/04 00:51:56;;;;;;;10.83;8.53;;;9.30;94.60;;;;;;5112973;27;20266;-52
2021/03/04 00:54:22;;;;;;;10.30;8.38;;;9.40;94.20;;;;;;5112780;27;20202;-52
2021/03/04 00:56:47;;;;;;;8.77;7.80;;;9.50;94.30;;;;;;5112645;27;20195;-52
2021/03/04 00:59:13;;;;;;;9.30;7.80;;;9.00;94.50;;;;;;5112437;27;20175;-52
2021/03/04 01:01:39;;;;;;;9.80;8.20;;;9.40;94.50;;;;;;5112981;27;20222;-52
2021/03/04 01:04:05;;;;;;;10.57;8.00;;;9.30;94.20;;;;;;5110924;27;20274;-52
2021/03/04 01:06:30;;;;;;;17.90;8.15;;;9.50;94.50;;;;;;5112966;27;20263;-51
2021/03/04 01:08:56;;;;;;;12.20;7.97;;;9.30;94.00;;;;;;5112508;27;20179;-52
2021/03/04 01:11:22;;;;;;;11.60;8.30;;;9.20;95.00;;;;;;5112171;27;20458;-52
2021/03/04 01:13:47;;;;;;;11.20;7.60;;;9.00;95.40;;;;;;5112628;27;20194;-53
2021/03/04 01:16:13;;;;;;;12.00;7.77;;;9.00;94.90;;;;;;5111724;27;20286;-53
2021/03/04 01:18:38;;;;;;;13.63;8.97;;;8.90;94.60;;;;;;5111567;28;20179;-53
2021/03/04 01:21:04;;;;;;;10.33;8.73;;;8.80;94.60;;;;;;5111688;27;20187;-53
2021/03/04 01:23:30;;;;;;;9.43;7.77;;;9.00;94.70;;;;;;5112467;27;20208;-53
2021/03/04 01:25:56;;;;;;;9.85;7.20;;;9.30;94.90;;;;;;5111989;27;20531;-53
2021/03/04 01:28:22;;;;;;;7.90;7.10;;;9.00;94.50;;;;;;5111756;27;20266;-52
2021/03/04 01:30:48;;;;;;;10.77;7.65;;;9.10;94.30;;;;;;5112516;27;20199;-53
2021/03/04 01:33:14;;;;;;;8.93;8.03;;;9.10;94.20;;;;;;5112270;27;20617;-53
2021/03/04 01:35:40;;;;;;;8.13;6.88;;;9.20;94.20;;;;;;5130225;27;20199;-53
2021/03/04 01:38:06;;;;;;;7.77;6.90;;;9.10;93.90;;;;;;5112368;27;20203;-52
2021/03/04 01:40:31;;;;;;;9.83;6.93;;;9.10;93.70;;;;;;5111714;27;20555;-52
2021/03/04 01:42:57;;;;;;;9.13;7.33;;;9.30;93.90;;;;;;5108898;27;20262;-52
2021/03/04 01:45:23;;;;;;;8.10;6.60;;;9.20;93.80;;;;;;5110143;27;20190;-51
2021/03/04 01:47:51;;;;;;;9.43;6.70;;;9.10;94.30;;;;;;5112177;27;20205;-52
2021/03/04 01:50:19;;;;;;;10.13;7.05;;;9.00;94.30;;;;;;5112223;27;20527;-52
2021/03/04 01:52:45;;;;;;;9.52;7.10;;;8.90;94.00;;;;;;5111618;27;20175;-52
2021/03/04 01:55:14;;;;;;;8.90;7.27;;;9.00;93.90;;;;;;5111245;27;20199;-52
2021/03/04 01:57:40;;;;;;;8.13;6.47;;;9.20;94.00;;;;;;5111344;27;20521;-51
2021/03/04 02:00:09;;;;;;;10.15;6.55;;;8.90;93.70;;;;;;5111569;27;20179;-52
2021/03/04 02:03:16;;;;;;;10.63;7.00;;;9.00;93.50;;;;;;5111227;28;20210;-51
2021/03/04 02:05:42;;;;;;;8.75;6.80;;;9.00;93.10;;;;;;5128122;27;20186;-52
2021/03/04 02:08:07;;;;;;;7.85;6.45;;;9.40;93.10;;;;;;5111628;28;20591;-53
2021/03/04 02:10:40;;;;;;;9.73;6.63;;;9.30;92.70;;;;;;5111877;27;20579;-52
2021/03/04 02:13:10;;;;;;;11.73;6.85;;;9.00;92.60;;;;;;5111363;28;20191;-52
2021/03/04 02:15:47;;;;;;;11.85;7.40;;;9.40;92.70;;;;;;5111622;27;20207;-51
2021/03/04 02:18:16;;;;;;;7.78;6.78;;;9.10;92.20;;;;;;5111400;28;20178;-53
2021/03/04 02:20:54;;;;;;;8.57;6.20;;;9.30;92.80;;;;;;5109811;28;20239;-53
2021/03/04 02:23:52;;;;;;;8.88;6.22;;;9.40;92.50;;;;;;5111069;28;20179;-53
2021/03/04 02:26:42;;;;;;;8.93;6.35;;;9.40;92.70;;;;;;5107912;28;20283;-53
2021/03/04 02:29:17;;;;;;;8.52;6.80;;;9.20;92.70;;;;;;5110793;28;20683;-53
2021/03/04 02:31:45;;;;;;;8.65;6.85;;;8.90;92.60;;;;;;5112382;27;20234;-52
2021/03/04 02:34:13;;;;;;;8.80;6.25;;;9.10;92.70;;;;;;5132307;27;20217;-53
2021/03/04 02:36:40;;;;;;;6.97;6.28;;;8.90;92.70;;;;;;5114110;27;20232;-53
2021/03/04 02:39:08;;;;;;;7.47;6.25;;;9.10;92.80;;;;;;5110632;27;20694;-53
2021/03/04 02:41:35;;;;;;;10.50;6.82;;;8.80;92.60;;;;;;5103833;27;20224;-52
2021/03/04 02:44:05;;;;;;;8.50;7.20;;;9.10;93.00;;;;;;5115138;27;20236;-52
2021/03/04 02:46:32;;;;;;;8.93;5.57;;;8.80;93.00;;;;;;5133719;27;20293;-52
2021/03/04 02:48:59;;;;;;;7.50;6.75;;;8.70;93.10;;;;;;5133572;27;20167;-52
2021/03/04 02:51:26;;;;;;;11.23;6.75;;;8.70;93.20;;;;;;5115487;27;20281;-52
2021/03/04 02:53:53;;;;;;;7.88;6.47;;;9.00;93.50;;;;;;5114831;27;20223;-53
2021/03/04 02:56:20;;;;;;;7.90;6.75;;;8.80;93.40;;;;;;5142553;27;20271;-53
2021/03/04 02:58:47;;;;;;;8.88;6.97;;;8.80;93.50;;;;;;5114809;27;20183;-53
2021/03/04 03:01:14;;;;;;;8.55;6.40;;;8.80;93.40;;;;;;5116076;27;20190;-52
2021/03/04 03:03:41;;;;;;;7.63;6.72;;;8.80;93.40;;;;;;5115507;27;20520;-53
2021/03/04 03:06:07;;;;;;;9.40;6.70;;;8.80;93.40;;;;;;5114658;27;20207;-53
2021/03/04 03:08:35;;;;;;;9.35;6.70;;;8.90;93.60;;;;;;5114849;27;20364;-53
2021/03/04 03:11:01;;;;;;;10.02;6.75;;;8.70;93.80;;;;;;5115344;27;20214;-53
2021/03/04 03:13:27;;;;;;;11.68;6.72;;;8.70;94.30;;;;;;5134289;27;20202;-52
2021/03/04 03:15:53;;;;;;;8.48;6.80;;;8.80;94.10;;;;;;5114683;27;20203;-53
2021/03/04 03:18:19;;;;;;;8.27;6.43;;;8.50;93.90;;;;;;5114532;27;20224;-53
2021/03/04 03:20:44;;;;;;;9.70;7.50;;;8.60;93.80;;;;;;5114552;27;20502;-52
2021/03/04 03:23:11;;;;;;;7.73;6.13;;;8.70;93.50;;;;;;5113897;27;20227;-53
2021/03/04 03:25:37;;;;;;;8.20;6.97;;;9.00;93.70;;;;;;5109353;28;20603;-52
2021/03/04 03:28:03;;;;;;;8.60;6.37;;;8.80;93.50;;;;;;5113902;27;20215;-52
2021/03/04 03:30:30;;;;;;;8.25;6.40;;;8.80;93.60;;;;;;5114285;27;20202;-52
2021/03/04 03:33:01;;;;;;;8.98;6.35;;;8.80;93.20;;;;;;5114376;27;20194;-51
2021/03/04 03:35:28;;;;;;;10.23;7.20;;;8.80;93.20;;;;;;5114384;27;20207;-51
2021/03/04 03:37:59;;;;;;;7.75;6.55;;;8.60;93.40;;;;;;5113899;27;20569;-53
2021/03/04 03:40:26;;;;;;;9.95;7.10;;;8.70;93.70;;;;;;5114131;27;20183;-52
2021/03/04 03:42:54;;;;;;;9.93;6.60;;;8.60;94.10;;;;;;5113347;27;20190;-53
2021/03/04 03:45:26;;;;;;;8.63;7.70;;;8.50;93.50;;;;;;5114696;27;20186;-52
2021/03/04 03:47:52;;;;;;;9.70;7.15;;;8.80;93.60;;;;;;5113999;27;20621;-51
2021/03/04 03:50:19;;;;;;;8.30;6.40;;;8.60;93.50;;;;;;5113244;27;20183;-52
2021/03/04 03:52:45;;;;;;;9.10;6.80;;;8.60;93.80;;;;;;5113564;27;20232;-52
2021/03/04 03:55:13;;;;;;;7.63;5.80;;;8.40;94.00;;;;;;5113609;27;20236;-52
2021/03/04 03:57:40;;;;;;;9.73;6.88;;;8.50;94.30;;;;;;5113846;27;20264;-52
2021/03/04 04:00:08;;;;;;;7.40;6.10;;;8.50;94.10;;;;;;5113191;27;20189;-52
2021/03/04 04:02:34;;;;;;;9.20;6.45;;;8.40;93.90;;;;;;5114422;27;20179;-52
2021/03/04 04:05:00;;;;;;;8.93;7.33;;;8.60;93.70;;;;;;5113663;27;20312;-52
2021/03/04 04:07:28;;;;;;;10.13;6.28;;;8.70;93.70;;;;;;5113564;27;20517;-52
2021/03/04 04:09:55;;;;;;;8.88;6.65;;;8.30;94.30;;;;;;5113778;27;20194;-52
2021/03/04 04:12:21;;;;;;;8.00;5.85;;;8.10;95.10;;;;;;5113825;27;20182;-52
2021/03/04 04:14:47;;;;;;;10.10;6.30;;;8.30;94.80;;;;;;5113571;27;20260;-52
2021/03/04 04:17:13;;;;;;;6.23;5.33;;;8.10;94.30;;;;;;5118579;27;20746;-52
2021/03/04 04:19:39;;;;;;;8.30;6.10;;;8.40;94.30;;;;;;5114004;27;20586;-53
2021/03/04 04:22:05;;;;;;;7.25;6.55;;;8.20;94.30;;;;;;5131540;27;20485;-53
2021/03/04 04:24:31;;;;;;;8.20;6.57;;;8.40;94.70;;;;;;5113339;27;20195;-52
2021/03/04 04:26:57;;;;;;;8.35;6.75;;;8.20;94.50;;;;;;5112888;27;20616;-53
2021/03/04 04:29:23;;;;;;;11.25;6.40;;;8.10;94.40;;;;;;5131712;27;20183;-54
2021/03/04 04:31:49;;;;;;;9.50;6.70;;;8.30;94.70;;;;;;5114962;27;20190;-52
2021/03/04 04:34:14;;;;;;;9.90;6.70;;;8.20;94.50;;;;;;5113761;27;20468;-53
2021/03/04 04:36:40;;;;;;;8.87;7.03;;;8.40;94.80;;;;;;5115184;27;20326;-53
2021/03/04 04:39:06;;;;;;;10.37;6.13;;;8.10;94.50;;;;;;5114009;27;20186;-53
2021/03/04 04:41:31;;;;;;;10.37;6.40;;;8.10;94.80;;;;;;5113583;27;20185;-53
2021/03/04 04:43:57;;;;;;;9.10;6.40;;;8.00;94.80;;;;;;5113421;27;20179;-52
2021/03/04 04:46:22;;;;;;;7.30;5.73;;;8.10;95.10;;;;;;5113317;27;20198;-52
2021/03/04 04:48:48;;;;;;;8.43;6.60;;;8.20;95.00;;;;;;5113270;27;20202;-52
2021/03/04 04:51:14;;;;;;;9.70;7.10;;;8.20;94.90;;;;;;5113268;27;20560;-52
2021/03/04 04:53:40;;;;;;;8.00;6.40;;;8.20;94.70;;;;;;5112323;27;20592;-52
2021/03/04 04:56:07;;;;;;;9.52;6.93;;;8.30;94.10;;;;;;5112538;27;20814;-52
2021/03/04 04:58:32;;;;;;;9.10;6.60;;;8.30;93.70;;;;;;5112497;27;20171;-51
2021/03/04 05:00:58;;;;;;;8.23;6.03;;;8.20;94.00;;;;;;5131329;27;20627;-52
2021/03/04 05:03:24;;;;;;;9.50;6.90;;;8.10;94.00;;;;;;5112524;27;20481;-52
2021/03/04 05:05:49;;;;;;;9.43;6.77;;;8.20;93.70;;;;;;5109483;27;20966;-52
2021/03/04 05:08:15;;;;;;;7.43;6.00;;;8.10;93.10;;;;;;5126617;27;20530;-52
2021/03/04 05:10:41;;;;;;;6.63;5.93;;;8.20;93.50;;;;;;5131023;27;20226;-52
2021/03/04 05:13:06;;;;;;;8.73;6.50;;;8.50;93.40;;;;;;5130119;27;20650;-52
2021/03/04 05:15:32;;;;;;;7.40;6.23;;;8.40;92.80;;;;;;5112176;27;20203;-52
2021/03/04 05:17:58;;;;;;;8.83;6.50;;;8.30;93.00;;;;;;5112226;27;20295;-51
2021/03/04 05:20:24;;;;;;;8.25;6.32;;;8.50;92.70;;;;;;5111892;27;20172;-51
2021/03/04 05:22:49;;;;;;;8.10;6.07;;;8.60;92.70;;;;;;5110435;27;20190;-52
2021/03/04 05:25:15;;;;;;;8.73;6.73;;;8.60;92.70;;;;;;5112610;27;20214;-53
2021/03/04 05:27:40;;;;;;;8.67;6.00;;;8.40;92.60;;;;;;5112693;27;20202;-52
2021/03/04 05:30:07;;;;;;;9.77;6.77;;;8.60;92.70;;;;;;5112132;27;20194;-51
2021/03/04 05:32:35;;;;;;;7.68;6.88;;;8.40;92.50;;;;;;5111685;27;20210;-52
2021/03/04 05:35:01;;;;;;;8.95;6.60;;;8.40;92.50;;;;;;5111403;27;20759;-52
2021/03/04 05:37:26;;;;;;;17.80;7.67;;;8.20;92.50;;;;;;5111421;27;20230;-52
2021/03/04 05:39:52;;;;;;;9.80;6.00;;;8.50;92.70;;;;;;5110858;27;20439;-52
2021/03/04 05:42:18;;;;;;;9.50;6.00;;;8.60;92.80;;;;;;5107165;27;20627;-52
2021/03/04 05:44:44;;;;;;;8.55;6.22;;;8.50;92.40;;;;;;5109852;27;20241;-52
2021/03/04 05:47:10;;;;;;;9.05;7.38;;;8.50;92.40;;;;;;5120913;27;20721;-52
2021/03/04 05:50:06;;;;;;;7.35;6.45;;;8.20;92.40;;;;;;5103398;27;20195;-51
2021/03/04 05:52:38;;;;;;;11.77;7.10;;;8.60;92.50;;;;;;5089923;27;20197;-51
2021/03/04 05:55:05;;;;;;;10.13;6.60;;;8.70;92.20;;;;;;5108130;27;20198;-50
2021/03/04 05:57:31;;;;;;;8.35;6.05;;;8.70;92.20;;;;;;5106174;27;20218;-50
2021/03/04 05:59:57;;;;;;;9.05;6.97;;;8.50;92.60;;;;;;5108442;27;20420;-51
2021/03/04 06:02:23;;;;;;;7.40;6.00;;;8.30;92.80;;;;;;5104988;27;20735;-50
2021/03/04 06:04:49;;;;;;;8.03;6.10;;;8.60;93.20;;;;;;5105488;27;20319;-51
2021/03/04 06:07:15;;;;;;;8.07;6.20;;;8.80;92.00;;;;;;5123850;27;20471;-51
2021/03/04 06:09:42;;;;;;;9.67;6.30;;;8.40;91.70;;;;;;5107179;28;20179;-50
2021/03/04 06:12:08;;;;;;;10.38;6.20;;;8.20;91.60;;;;;;5103020;28;20490;-49
2021/03/04 06:14:36;;;;;;;8.32;6.60;;;8.70;91.90;;;;;;5104937;28;20202;-49
2021/03/04 06:17:11;;;;;;;11.63;6.20;;;8.50;91.80;;;;;;5106645;27;20357;-50
2021/03/04 06:19:37;;;;;;;10.05;7.15;;;8.30;91.70;;;;;;5105338;28;20178;-49
2021/03/04 06:22:03;;;;;;;10.40;7.07;;;8.40;92.00;;;;;;5105945;28;20199;-50
2021/03/04 06:24:29;;;;;;;8.47;6.37;;;8.30;91.80;;;;;;5103692;28;20179;-51
2021/03/04 06:26:56;;;;;;;11.70;7.80;;;8.50;92.20;;;;;;5102793;28;20547;-52
2021/03/04 06:29:24;;;;;;;7.70;6.90;;;8.30;92.00;;;;;;5106115;28;20447;-50
2021/03/04 06:32:01;;;;;;;9.25;7.13;;;8.40;92.20;;;;;;5105281;28;20278;-51
2021/03/04 06:34:27;;;;;;;11.80;7.05;;;8.40;92.20;;;;;;5105992;28;20750;-50
2021/03/04 06:36:57;;;;;;;12.35;7.78;;;8.40;92.20;;;;;;5103729;28;20196;-51
2021/03/04 06:39:23;;;;;;;8.70;6.90;;;8.40;92.10;;;;;;5103836;28;20549;-57
2021/03/04 06:42:00;;;;;;;10.90;7.75;;;8.40;91.90;;;;;;5106158;28;20270;-50
2021/03/04 06:44:26;;;;;;;6.88;6.18;;;8.70;92.10;;;;;;5118262;28;20179;-51
2021/03/04 06:46:51;;;;;;;10.30;7.57;;;8.80;91.90;;;;;;5105676;28;20199;-49
2021/03/04 06:49:18;;;;;;;8.67;7.47;;;8.50;91.50;;;;;;5105073;28;20442;-50
2021/03/04 06:51:44;;;;;;;10.15;7.75;;;8.60;91.50;;;;;;5103004;28;20175;-49
2021/03/04 06:54:24;;;;;;;14.55;7.82;;;8.70;91.60;;;;;;5105522;27;20588;-49
2021/03/04 06:56:53;;;;;;;12.30;7.75;;;8.70;91.50;;;;;;5100053;28;20202;-50
2021/03/04 06:59:18;;;;;;;8.85;6.72;;;8.70;91.70;;;;;;5105007;28;20184;-50
2021/03/04 07:01:44;;;;;;;9.27;7.50;;;9.00;91.90;;;;;;5105532;28;20523;-50
2021/03/04 07:04:15;;;;;;;9.73;7.20;;;8.90;91.80;;;;;;5105656;28;20587;-51
2021/03/04 07:06:44;;;;;;;8.35;7.45;;;8.70;91.50;;;;;;5103090;28;20218;-50
2021/03/04 07:09:10;;;;;;;9.32;8.25;;;8.90;91.40;;;;;;5121754;28;20182;-50
2021/03/04 07:11:37;;;;;;;10.65;7.13;;;8.90;91.60;;;;;;5101599;28;20179;-51
2021/03/04 07:14:06;;;;;;;9.60;7.05;;;9.10;91.20;;;;;;5102297;28;20237;-50
2021/03/04 07:16:43;;;;;;;13.00;8.77;;;9.30;90.90;;;;;;5110598;28;20224;-51
2021/03/04 07:19:11;;;;;;;8.90;7.25;;;9.50;90.90;;;;;;5112251;27;20931;-50
2021/03/04 07:21:43;;;;;;;10.30;7.50;;;9.30;90.40;;;;;;5116302;27;20236;-51
2021/03/04 07:24:09;;;;;;;12.05;7.55;;;9.50;90.10;;;;;;5114094;27;20203;-50
2021/03/04 07:26:38;;;;;;;14.05;7.47;;;9.90;89.80;;;;;;5115263;27;20195;-50
2021/03/04 07:29:11;;;;;;;10.10;7.93;;;10.00;87.50;;;;;;5110404;27;20712;-51
2021/03/04 07:31:38;;;;;;;8.70;7.68;;;10.30;86.50;;;;;;5111757;27;20705;-50
2021/03/04 07:34:09;;;;;;;10.93;8.85;;;10.20;85.30;;;;;;5111422;27;20180;-50
2021/03/04 07:36:35;;;;;;;11.48;7.60;;;10.60;85.80;;;;;;5113953;27;20210;-50
2021/03/04 07:39:03;;;;;;;9.93;8.20;;;11.10;85.30;;;;;;5113830;27;20180;-49
2021/03/04 07:41:38;;;;;;;10.85;7.97;;;10.90;83.80;;;;;;5109152;27;20413;-51
2021/03/04 07:44:05;;;;;;;10.30;7.30;;;11.30;82.90;;;;;;5102386;28;20211;-51
2021/03/04 07:46:44;;;;;;;14.55;7.95;;;11.50;82.00;;;;;;5127638;27;20808;-51
2021/03/04 07:49:10;;;;;;;13.20;8.65;;;11.50;81.50;;;;;;5132202;27;20593;-51
2021/03/04 07:51:43;;;;;;;12.80;7.85;;;11.80;81.40;;;;;;5107376;27;20192;-47
2021/03/04 07:54:09;;;;;;;11.95;7.65;;;11.80;78.90;;;;;;5112098;27;20187;-48
2021/03/04 07:56:34;;;;;;;11.65;7.03;;;12.10;78.10;;;;;;5111581;27;20202;-53
2021/03/04 07:59:12;;;;;;;8.57;7.40;;;12.00;76.20;;;;;;5106740;27;20512;-53
2021/03/04 08:01:39;;;;;;;11.27;7.80;;;12.40;75.00;;;;;;5102375;27;21022;-52
2021/03/04 08:04:05;;;;;;;14.18;8.60;;;12.10;75.30;;;;;;5107123;27;20177;-51
2021/03/04 08:06:42;;;;;;;11.07;7.47;;;12.70;76.50;;;;;;5112520;27;20289;-51
2021/03/04 08:09:08;;;;;;;12.60;8.15;;;12.90;73.00;;;;;;5108040;27;20178;-51
2021/03/04 08:11:34;;;;;;;9.30;7.07;;;13.20;72.10;;;;;;5112457;27;20182;-51
2021/03/04 08:14:13;;;;;;;14.20;7.80;;;13.40;71.50;;;;;;5111527;27;20197;-51
2021/03/04 08:16:39;;;;;;;19.65;15.25;;;13.20;70.80;;;;;;5100022;27;20293;-51
2021/03/04 08:19:04;;;;;;;10.80;7.90;;;13.40;70.50;;;;;;5115915;27;20261;-52
2021/03/04 08:21:32;;;;;;;16.17;8.07;;;13.60;68.60;;;;;;5110458;27;20182;-51
2021/03/04 08:23:58;;;;;;;14.60;8.00;;;14.10;68.50;;;;;;5111544;27;20175;-51
2021/03/04 08:26:29;;;;;;;13.52;7.72;;;13.90;68.70;;;;;;5113204;27;20199;-52
2021/03/04 08:29:11;;;;;;;10.02;7.25;;;14.00;65.80;;;;;;5111326;27;20266;-52
2021/03/04 08:31:52;;;;;;;9.77;7.05;;;14.10;65.10;;;;;;5111598;27;20206;-53
2021/03/04 08:34:18;;;;;;;11.80;7.13;;;14.30;65.00;;;;;;5109458;27;20207;-51
2021/03/04 08:36:46;;;;;;;10.90;6.30;;;14.50;64.10;;;;;;5109857;27;20225;-51
2021/03/04 08:39:13;;;;;;;9.45;6.72;;;14.40;62.70;;;;;;5110224;27;20185;-51
2021/03/04 08:41:39;;;;;;;14.57;7.65;;;14.30;62.90;;;;;;5131334;27;20243;-52
2021/03/04 08:44:13;;;;;;;11.53;7.33;;;14.70;63.40;;;;;;5111505;27;20167;-52
2021/03/04 08:46:47;;;;;;;8.82;6.53;;;14.60;62.50;;;;;;5110046;27;20202;-52
2021/03/04 08:49:20;;;;;;;10.45;7.38;;;14.70;61.80;;;;;;5111889;27;20171;-52
2021/03/04 08:51:46;;;;;;;7.95;6.95;;;14.90;60.70;;;;;;5108413;27;20243;-52
2021/03/04 08:54:22;;;;;;;8.98;6.47;;;14.80;60.10;;;;;;5106325;27;20197;-53
2021/03/04 08:57:03;;;;;;;8.80;6.47;;;14.80;59.80;;;;;;5108426;27;20305;-53
2021/03/04 08:59:29;;;;;;;12.13;6.60;;;14.90;59.20;;;;;;5110366;27;20253;-53
2021/03/04 09:01:55;;;;;;;9.90;6.97;;;14.90;59.40;;;;;;5108849;27;20655;-51
2021/03/04 09:04:23;;;;;;;9.05;6.22;;;15.20;59.30;;;;;;5125741;27;20274;-51
2021/03/04 09:06:49;;;;;;;11.02;7.30;;;14.80;59.20;;;;;;5109614;27;20230;-51
2021/03/04 09:09:28;;;;;;;67.32;13.25;;;14.80;59.20;;;;;;5102096;27;20182;-51
2021/03/04 09:11:54;;;;;;;17.83;8.55;;;14.90;59.60;;;;;;5126862;27;20190;-51
2021/03/04 09:14:31;;;;;;;9.85;7.03;;;14.70;60.10;;;;;;5128629;27;20199;-51
2021/03/04 09:16:58;;;;;;;12.10;7.18;;;14.70;59.90;;;;;;5111777;27;20210;-51
2021/03/04 09:19:35;;;;;;;8.80;6.28;;;14.80;59.40;;;;;;5111918;27;20705;-51
2021/03/04 09:22:07;;;;;;;10.10;6.25;;;15.00;59.80;;;;;;5111747;27;20257;-51
2021/03/04 09:24:34;;;;;;;10.98;6.97;;;15.20;59.40;;;;;;5111700;27;20243;-51
2021/03/04 09:27:04;;;;;;;9.88;7.22;;;15.90;59.80;;;;;;5140076;27;20579;-51
2021/03/04 09:29:31;;;;;;;13.38;7.70;;;16.50;58.80;;;;;;5104946;27;20187;-51
2021/03/04 09:31:57;;;;;;;9.55;7.80;;;16.80;57.10;;;;;;5108073;27;20197;-52
2021/03/04 09:34:40;;;;;;;9.97;6.63;;;17.30;55.80;;;;;;5108587;27;20391;-52
2021/03/04 09:37:08;;;;;;;10.30;7.43;;;17.40;55.40;;;;;;5107958;27;20199;-53
2021/03/04 09:39:48;;;;;;;10.88;7.10;;;17.10;57.20;;;;;;5106280;27;20183;-52
2021/03/04 09:42:20;;;;;;;13.63;8.18;;;17.40;57.70;;;;;;5112548;27;20183;-48
2021/03/04 09:44:48;;;;;;;8.95;6.95;;;17.00;57.80;;;;;;5111019;27;20183;-47
2021/03/04 09:47:25;;;;;;;12.95;6.70;;;17.00;56.60;;;;;;5102411;27;20203;-52
2021/03/04 09:49:52;;;;;;;12.40;7.25;;;16.80;56.10;;;;;;5101702;27;20186;-52
2021/03/04 09:52:31;;;;;;;9.55;7.00;;;16.90;56.70;;;;;;5108260;27;20240;-52
2021/03/04 09:55:11;;;;;;;8.13;6.30;;;17.10;55.90;;;;;;5110571;27;20218;-52
2021/03/04 09:57:42;;;;;;;15.30;7.47;;;17.00;56.10;;;;;;5106703;27;20204;-52
2021/03/04 10:00:18;;;;;;;9.80;7.28;;;17.50;57.00;;;;;;5107366;27;20178;-52
2021/03/04 10:02:49;;;;;;;21.23;8.35;;;17.50;55.60;;;;;;5110757;27;20167;-55
2021/03/04 10:05:22;;;;;;;16.20;7.45;;;17.90;54.70;;;;;;5111907;27;20183;-53
2021/03/04 10:07:50;;;;;;;10.43;7.40;;;18.40;54.30;;;;;;5119757;27;20238;-53
2021/03/04 10:10:18;;;;;;;8.27;7.40;;;18.90;53.70;;;;;;5119927;27;20189;-55
2021/03/04 10:12:55;;;;;;;10.70;7.88;;;19.00;53.00;;;;;;5108456;28;20544;-55
2021/03/04 10:15:24;;;;;;;8.18;6.50;;;18.60;53.50;;;;;;5107697;27;20285;-55
2021/03/04 10:17:50;;;;;;;11.73;7.10;;;18.30;54.00;;;;;;5107361;27;20202;-55
2021/03/04 10:20:15;;;;;;;11.10;8.00;;;18.10;54.80;;;;;;5109337;28;20674;-54
2021/03/04 10:22:41;;;;;;;11.20;7.30;;;18.40;55.20;;;;;;5106279;28;20259;-52
2021/03/04 10:25:07;;;;;;;13.57;8.30;;;18.50;54.80;;;;;;5107687;28;20182;-51
2021/03/04 10:27:33;;;;;;;13.63;8.95;;;18.20;55.10;;;;;;5109754;28;20207;-51
2021/03/04 10:29:58;;;;;;;14.27;8.07;;;18.10;55.30;;;;;;5110929;28;20692;-51
2021/03/04 10:32:24;;;;;;;14.03;8.57;;;18.20;55.70;;;;;;5093370;28;20197;-52
2021/03/04 10:34:50;;;;;;;11.30;8.17;;;18.30;55.40;;;;;;5109068;28;20834;-52
2021/03/04 10:37:15;;;;;;;11.83;7.40;;;18.20;55.60;;;;;;5110706;28;20250;-52
2021/03/04 10:39:41;;;;;;;14.00;8.40;;;17.70;56.00;;;;;;5107156;28;20562;-52
2021/03/04 10:42:06;;;;;;;17.87;9.73;;;17.60;57.10;;;;;;5111680;27;20181;-52
2021/03/04 10:44:32;;;;;;;32.63;11.77;;;18.10;57.00;;;;;;5108725;28;20631;-53
2021/03/04 10:46:57;;;;;;;18.03;9.60;;;17.60;57.50;;;;;;5100515;28;20206;-52
2021/03/04 10:49:23;;;;;;;15.03;8.97;;;17.90;56.40;;;;;;5109380;28;20269;-54
2021/03/04 10:51:49;;;;;;;12.83;9.27;;;18.30;56.30;;;;;;5117555;27;20182;-52
2021/03/04 10:54:15;;;;;;;14.70;9.70;;;18.40;56.60;;;;;;5106751;27;20192;-50
2021/03/04 10:56:40;;;;;;;15.57;10.38;;;18.20;56.70;;;;;;5114397;27;20664;-51
2021/03/04 10:59:06;;;;;;;14.57;9.43;;;18.20;56.80;;;;;;5113432;27;20214;-54
2021/03/04 11:01:33;;;;;;;12.53;8.30;;;18.20;57.20;;;;;;5113190;27;20186;-51
2021/03/04 11:03:59;;;;;;;13.85;8.73;;;18.10;56.40;;;;;;5111639;27;21397;-52
2021/03/04 11:06:24;;;;;;;15.17;8.97;;;18.30;56.90;;;;;;5111667;27;20342;-52
2021/03/04 11:08:50;;;;;;;14.53;8.67;;;19.10;56.50;;;;;;5111074;27;20570;-52
2021/03/04 11:11:16;;;;;;;16.43;8.90;;;19.60;54.20;;;;;;5114263;27;20233;-54
2021/03/04 11:13:41;;;;;;;13.40;8.60;;;19.70;55.10;;;;;;5111531;27;20226;-51
2021/03/04 11:16:07;;;;;;;18.47;13.17;;;19.90;54.40;;;;;;5113658;27;20237;-51
2021/03/04 11:18:32;;;;;;;17.80;8.27;;;20.20;53.70;;;;;;5116676;27;20178;-51
2021/03/04 11:21:01;;;;;;;14.77;8.80;;;20.10;52.60;;;;;;5111766;27;20216;-51
2021/03/04 11:23:27;;;;;;;15.65;8.68;;;19.70;53.80;;;;;;5112586;27;20214;-51
2021/03/04 11:25:52;;;;;;;14.90;9.63;;;19.90;53.50;;;;;;5122799;27;20233;-51
2021/03/04 11:28:18;;;;;;;11.20;8.53;;;19.60;53.70;;;;;;5128307;27;20285;-52
2021/03/04 11:30:44;;;;;;;13.10;9.27;;;19.50;53.80;;;;;;5112720;27;20174;-52
2021/03/04 11:33:09;;;;;;;18.77;9.90;;;19.50;54.10;;;;;;5114234;27;20310;-52
2021/03/04 11:35:35;;;;;;;19.47;10.80;;;19.60;53.90;;;;;;5112291;27;20569;-52
2021/03/04 11:38:00;;;;;;;13.60;10.10;;;19.80;54.00;;;;;;5112652;27;20203;-52
2021/03/04 11:40:26;;;;;;;13.10;8.90;;;19.40;54.70;;;;;;5110906;27;20179;-51
2021/03/04 11:42:52;;;;;;;13.00;8.80;;;19.20;55.20;;;;;;5119622;27;20751;-53
2021/03/04 11:45:17;;;;;;;16.40;10.10;;;18.90;55.00;;;;;;5126579;27;20214;-52
2021/03/04 11:47:43;;;;;;;15.93;10.40;;;19.10;55.30;;;;;;5108606;27;20288;-51
2021/03/04 11:50:09;;;;;;;14.77;9.17;;;18.80;55.10;;;;;;5107023;27;20191;-53
2021/03/04 11:52:36;;;;;;;15.43;9.25;;;18.40;55.30;;;;;;5112462;27;20228;-52
2021/03/04 11:55:02;;;;;;;10.75;8.48;;;18.40;55.90;;;;;;5109937;27;20203;-52
2021/03/04 11:57:27;;;;;;;14.05;9.43;;;18.20;56.40;;;;;;5111608;27;20205;-52
2021/03/04 11:59:53;;;;;;;15.53;9.30;;;18.30;55.80;;;;;;5112805;27;20659;-51
2021/03/04 12:02:19;;;;;;;10.17;8.30;;;18.40;56.30;;;;;;5110377;27;20558;-51
2021/03/04 12:04:44;;;;;;;12.07;8.47;;;18.40;56.00;;;;;;5112538;27;20674;-52
2021/03/04 12:07:10;;;;;;;13.23;8.83;;;18.60;55.40;;;;;;5112801;27;20452;-52
2021/03/04 12:09:36;;;;;;;18.30;9.33;;;18.80;55.00;;;;;;5109590;27;20187;-51
2021/03/04 12:12:01;;;;;;;17.90;8.87;;;18.90;55.10;;;;;;5112597;27;20650;-51
2021/03/04 12:14:27;;;;;;;16.30;10.20;;;18.80;55.40;;;;;;5112456;27;20591;-52
2021/03/04 12:16:53;;;;;;;18.50;10.00;;;18.70;56.40;;;;;;5111844;27;20199;-52
2021/03/04 12:19:19;;;;;;;16.73;9.57;;;18.70;56.60;;;;;;5107336;27;20175;-52
2021/03/04 12:21:44;;;;;;;12.40;7.75;;;18.70;55.90;;;;;;5111064;27;20318;-55
2021/03/04 12:24:10;;;;;;;17.73;8.53;;;18.90;54.80;;;;;;5110580;27;20360;-54
2021/03/04 12:26:36;;;;;;;16.80;9.10;;;18.80;54.40;;;;;;5117556;27;20203;-54
2021/03/04 12:29:02;;;;;;;13.80;8.53;;;19.00;54.20;;;;;;5107891;27;20932;-54
2021/03/04 12:31:27;;;;;;;15.00;8.27;;;19.10;54.70;;;;;;5126956;27;20222;-54
2021/03/04 12:33:53;;;;;;;18.27;8.50;;;19.00;53.90;;;;;;5113115;27;20625;-54
2021/03/04 12:36:19;;;;;;;12.43;7.80;;;19.00;53.80;;;;;;5109091;27;20645;-54
2021/03/04 12:38:44;;;;;;;15.23;6.80;;;19.00;52.70;;;;;;5126132;27;20580;-54
2021/03/04 12:41:10;;;;;;;10.20;7.73;;;18.80;52.90;;;;;;5107836;27;20590;-54
2021/03/04 12:43:36;;;;;;;12.60;7.88;;;18.60;53.00;;;;;;5105642;27;20852;-53
2021/03/04 12:46:03;;;;;;;14.07;8.97;;;18.80;53.20;;;;;;5109696;27;20188;-53
2021/03/04 12:48:28;;;;;;;10.35;7.60;;;18.60;53.60;;;;;;5111821;27;20274;-52